createdAt,value
2019-03-21T00:01:13.459Z,22.13
2019-03-21T00:03:45.192Z,20.43
2019-03-21T00:06:16.951Z,21.07
2019-03-21T00:08:51.826Z,24.37
2019-03-21T00:12:04.662Z,23.37
2019-03-21T00:14:59.284Z,20.60
2019-03-21T00:17:33.825Z,22.70
2019-03-21T00:20:07.196Z,22.40
2019-03-21T00:22:40.372Z,26.27
2019-03-21T00:25:19.834Z,23.13
2019-03-21T00:27:51.097Z,27.03
2019-03-21T00:30:23.144Z,33.20
2019-03-21T00:32:58.460Z,30.57
2019-03-21T00:35:35.121Z,28.20
2019-03-21T00:38:06.252Z,29.50
2019-03-21T00:40:39.427Z,25.43
2019-03-21T00:43:11.769Z,28.37
2019-03-21T00:45:42.984Z,26.40
2019-03-21T00:48:21.460Z,27.30
2019-03-21T00:50:52.558Z,27.87
2019-03-21T00:53:23.671Z,24.00
2019-03-21T00:55:55.052Z,21.47
2019-03-21T00:58:26.244Z,20.03
2019-03-21T01:00:57.796Z,25.10
2019-03-21T01:03:28.908Z,22.07
2019-03-21T01:06:00.074Z,18.90
2019-03-21T01:08:42.611Z,19.47
2019-03-21T01:11:13.901Z,19.87
2019-03-21T01:13:51.066Z,19.40
2019-03-21T01:16:22.288Z,20.27
2019-03-21T01:18:53.415Z,20.20
2019-03-21T01:21:24.565Z,16.93
2019-03-21T01:23:55.802Z,22.77
2019-03-21T01:26:33.956Z,19.33
2019-03-21T01:29:05.149Z,19.93
2019-03-21T01:31:36.295Z,21.40
2019-03-21T01:34:07.427Z,20.70
2019-03-21T01:36:41.931Z,17.80
2019-03-21T01:39:38.328Z,20.23
2019-03-21T01:42:16.407Z,17.70
2019-03-21T01:44:47.426Z,18.83
2019-03-21T01:47:18.592Z,16.87
2019-03-21T01:50:03.178Z,19.17
2019-03-21T01:52:34.352Z,18.60
2019-03-21T01:55:06.346Z,16.10
2019-03-21T01:57:37.479Z,18.63
2019-03-21T02:00:11.982Z,19.30
2019-03-21T02:02:43.286Z,21.50
2019-03-21T02:05:14.437Z,19.00
2019-03-21T02:07:45.733Z,20.33
2019-03-21T02:10:18.901Z,17.90
2019-03-21T02:12:50.111Z,18.10
2019-03-21T02:15:21.278Z,18.40
2019-03-21T02:17:52.501Z,20.10
2019-03-21T02:20:23.610Z,20.33
2019-03-21T02:22:54.742Z,18.50
2019-03-21T02:25:27.733Z,19.57
2019-03-21T02:27:58.962Z,18.07
2019-03-21T02:30:34.748Z,19.87
2019-03-21T02:33:12.377Z,19.23
2019-03-21T02:35:43.499Z,19.23
2019-03-21T02:38:14.543Z,18.57
2019-03-21T02:40:47.732Z,21.57
2019-03-21T02:43:18.950Z,18.57
2019-03-21T02:45:55.155Z,18.83
2019-03-21T02:48:26.419Z,24.13
2019-03-21T02:50:58.605Z,18.83
2019-03-21T02:53:30.794Z,20.40
2019-03-21T02:56:02.082Z,21.53
2019-03-21T02:58:33.175Z,19.73
2019-03-21T03:01:04.349Z,21.70
2019-03-21T03:03:35.394Z,18.17
2019-03-21T03:06:06.725Z,22.73
2019-03-21T03:08:37.918Z,17.73
2019-03-21T03:11:10.933Z,22.90
2019-03-21T03:13:43.249Z,19.30
2019-03-21T03:16:14.489Z,20.43
2019-03-21T03:18:46.641Z,24.40
2019-03-21T03:21:18.707Z,22.53
2019-03-21T03:23:49.928Z,24.53
2019-03-21T03:26:25.566Z,24.70
2019-03-21T03:28:56.607Z,24.47
2019-03-21T03:31:30.954Z,24.13
2019-03-21T03:34:02.276Z,22.23
2019-03-21T03:36:33.650Z,23.23
2019-03-21T03:39:07.871Z,20.93
2019-03-21T03:41:46.726Z,26.53
2019-03-21T03:44:17.982Z,22.73
2019-03-21T03:46:53.255Z,22.63
2019-03-21T03:49:24.365Z,24.10
2019-03-21T03:51:55.568Z,21.10
2019-03-21T03:54:32.790Z,22.40
2019-03-21T03:57:04.107Z,25.37
2019-03-21T03:59:35.306Z,25.23
2019-03-21T04:02:06.469Z,24.57
2019-03-21T04:04:37.591Z,26.00
2019-03-21T04:07:08.719Z,24.53
2019-03-21T04:09:39.838Z,26.40
2019-03-21T04:12:11.040Z,25.23
2019-03-21T04:14:46.091Z,24.20
2019-03-21T04:17:23.456Z,21.63
2019-03-21T04:19:54.594Z,20.03
2019-03-21T04:22:25.812Z,26.63
2019-03-21T04:24:56.918Z,22.97
2019-03-21T04:27:42.566Z,23.27
2019-03-21T04:30:14.551Z,22.83
2019-03-21T04:33:17.975Z,26.93
2019-03-21T04:36:08.427Z,26.80
2019-03-21T04:38:39.678Z,25.93
2019-03-21T04:41:10.793Z,27.47
2019-03-21T04:43:52.476Z,26.17
2019-03-21T04:46:23.559Z,24.13
2019-03-21T04:49:06.820Z,24.13
2019-03-21T04:51:38.969Z,23.37
2019-03-21T04:54:11.160Z,22.73
2019-03-21T04:56:42.412Z,23.53
2019-03-21T04:59:19.739Z,20.67
2019-03-21T05:01:50.888Z,26.33
2019-03-21T05:04:22.084Z,29.07
2019-03-21T05:07:08.751Z,25.83
2019-03-21T05:09:39.904Z,24.30
2019-03-21T05:12:13.088Z,23.60
2019-03-21T05:14:44.301Z,22.77
2019-03-21T05:17:20.866Z,23.60
2019-03-21T05:19:52.035Z,24.23
2019-03-21T05:22:23.324Z,25.23
2019-03-21T05:25:03.290Z,22.77
2019-03-21T05:27:50.701Z,27.53
2019-03-21T05:30:37.715Z,23.37
2019-03-21T05:33:17.841Z,25.77
2019-03-21T05:36:06.557Z,24.43
2019-03-21T05:38:37.866Z,28.23
2019-03-21T05:41:21.050Z,23.40
2019-03-21T05:43:55.884Z,27.77
2019-03-21T05:46:27.412Z,26.70
2019-03-21T05:49:13.466Z,27.20
2019-03-21T05:51:48.161Z,29.50
2019-03-21T05:54:19.439Z,29.77
2019-03-21T05:56:50.639Z,26.10
2019-03-21T05:59:24.903Z,26.97
2019-03-21T06:01:58.058Z,26.90
2019-03-21T06:04:33.189Z,27.83
2019-03-21T06:07:30.431Z,30.30
2019-03-21T06:10:02.676Z,28.20
2019-03-21T06:13:03.996Z,28.80
2019-03-21T06:15:39.886Z,24.10
2019-03-21T06:18:47.104Z,25.33
2019-03-21T06:21:54.663Z,27.67
2019-03-21T06:24:54.172Z,29.57
2019-03-21T06:27:40.745Z,27.63
2019-03-21T06:30:12.297Z,36.83
2019-03-21T06:32:43.523Z,28.20
2019-03-21T06:35:22.087Z,28.43
2019-03-21T06:37:55.251Z,28.30
2019-03-21T06:40:39.392Z,26.67
2019-03-21T06:43:21.599Z,23.80
2019-03-21T06:45:52.754Z,22.87
2019-03-21T06:48:24.888Z,24.43
2019-03-21T06:50:56.319Z,29.13
2019-03-21T06:53:27.603Z,24.23
2019-03-21T06:56:15.755Z,24.83
2019-03-21T06:58:49.143Z,23.10
2019-03-21T07:01:26.445Z,24.57
2019-03-21T07:04:06.596Z,26.87
2019-03-21T07:07:08.344Z,24.33
2019-03-21T07:09:40.196Z,19.80
2019-03-21T07:12:11.379Z,21.60
2019-03-21T07:15:05.870Z,22.70
2019-03-21T07:17:37.011Z,23.07
2019-03-21T07:20:18.349Z,23.43
2019-03-21T07:22:49.880Z,21.93
2019-03-21T07:25:20.991Z,23.13
2019-03-21T07:27:52.028Z,20.87
2019-03-21T07:30:23.286Z,23.53
2019-03-21T07:32:54.414Z,21.63
2019-03-21T07:35:25.556Z,26.77
2019-03-21T07:37:56.676Z,20.10
2019-03-21T07:40:27.971Z,23.53
2019-03-21T07:42:59.003Z,22.43
2019-03-21T07:45:30.132Z,20.07
2019-03-21T07:48:09.331Z,21.83
2019-03-21T07:50:40.576Z,21.73
2019-03-21T07:53:11.778Z,19.00
2019-03-21T07:55:42.932Z,16.67
2019-03-21T07:58:14.057Z,22.20
2019-03-21T08:00:45.215Z,23.57
2019-03-21T08:03:16.358Z,23.17
2019-03-21T08:05:54.901Z,21.60
2019-03-21T08:08:26.073Z,22.23
2019-03-21T08:10:57.229Z,23.03
2019-03-21T08:13:34.194Z,22.33
2019-03-21T08:16:08.437Z,21.73
2019-03-21T08:18:39.543Z,20.33
2019-03-21T08:21:10.732Z,21.97
2019-03-21T08:24:00.342Z,20.57
2019-03-21T08:26:31.574Z,20.83
2019-03-21T08:29:04.800Z,22.83
2019-03-21T08:31:35.920Z,18.40
2019-03-21T08:34:07.062Z,22.27
2019-03-21T08:36:38.257Z,15.00
2019-03-21T08:39:31.232Z,20.77
2019-03-21T08:42:02.480Z,18.93
2019-03-21T08:44:33.594Z,20.77
2019-03-21T08:47:04.799Z,18.43
2019-03-21T08:49:36.019Z,20.80
2019-03-21T08:52:28.134Z,18.27
2019-03-21T08:54:59.295Z,19.53
2019-03-21T08:57:45.074Z,23.77
2019-03-21T09:00:17.300Z,21.63
2019-03-21T09:02:48.443Z,21.07
2019-03-21T09:05:33.840Z,20.90
2019-03-21T09:08:10.053Z,21.63
2019-03-21T09:10:41.273Z,18.00
2019-03-21T09:13:13.603Z,20.53
2019-03-21T09:15:44.759Z,19.10
2019-03-21T09:18:15.963Z,18.20
2019-03-21T09:20:47.230Z,18.63
2019-03-21T09:23:18.508Z,20.87
2019-03-21T09:25:55.485Z,19.90
2019-03-21T09:28:26.730Z,18.80
2019-03-21T09:30:57.884Z,20.03
2019-03-21T09:33:29.058Z,19.10
2019-03-21T09:36:00.164Z,20.73
2019-03-21T09:38:41.300Z,21.13
2019-03-21T09:41:12.565Z,18.63
2019-03-21T09:43:49.939Z,18.37
2019-03-21T09:46:26.843Z,18.33
2019-03-21T09:49:17.365Z,21.13
2019-03-21T09:51:55.314Z,20.40
2019-03-21T09:54:26.600Z,19.40
2019-03-21T09:56:57.808Z,20.10
2019-03-21T09:59:29.232Z,20.37
2019-03-21T10:02:01.489Z,20.37
2019-03-21T10:04:43.231Z,17.03
2019-03-21T10:07:44.141Z,20.07
2019-03-21T10:10:29.493Z,20.47
2019-03-21T10:13:06.117Z,19.50
2019-03-21T10:15:37.293Z,22.63
2019-03-21T10:18:08.485Z,19.50
2019-03-21T10:20:57.720Z,20.03
2019-03-21T10:23:30.973Z,20.97
2019-03-21T10:26:02.302Z,20.47
2019-03-21T10:28:33.618Z,16.77
2019-03-21T10:31:08.945Z,19.83
2019-03-21T10:33:40.126Z,20.13
2019-03-21T10:36:11.329Z,23.03
2019-03-21T10:38:42.555Z,18.13
2019-03-21T10:41:13.657Z,20.10
2019-03-21T10:44:08.638Z,19.63
2019-03-21T10:46:39.863Z,21.40
2019-03-21T10:49:11.156Z,21.67
2019-03-21T10:51:56.613Z,15.67
2019-03-21T10:54:33.450Z,17.73
2019-03-21T10:57:05.692Z,15.03
2019-03-21T10:59:37.055Z,16.50
2019-03-21T11:02:08.230Z,18.07
2019-03-21T11:04:39.492Z,15.50
2019-03-21T11:07:13.680Z,16.93
2019-03-21T11:09:44.868Z,16.90
2019-03-21T11:12:18.002Z,17.37
2019-03-21T11:14:49.224Z,20.73
2019-03-21T11:17:22.362Z,22.97
2019-03-21T11:19:54.529Z,18.73
2019-03-21T11:22:25.658Z,20.83
2019-03-21T11:24:56.969Z,26.60
2019-03-21T11:27:33.878Z,23.10
2019-03-21T11:30:15.702Z,21.13
2019-03-21T11:32:40.621Z,23.67
2019-03-21T11:35:14.020Z,23.43
2019-03-21T11:37:45.159Z,26.20
2019-03-21T11:40:18.212Z,27.67
2019-03-21T11:42:49.446Z,20.33
2019-03-21T11:45:24.105Z,25.07
2019-03-21T11:48:19.243Z,24.53
2019-03-21T11:50:59.115Z,23.93
2019-03-21T11:53:30.299Z,24.50
2019-03-21T11:56:01.610Z,24.47
2019-03-21T11:58:32.747Z,23.60
2019-03-21T12:01:03.954Z,23.77
2019-03-21T12:04:02.270Z,23.73
2019-03-21T12:06:33.762Z,22.83
2019-03-21T12:09:07.179Z,20.60
2019-03-21T12:11:45.656Z,20.23
2019-03-21T12:14:24.706Z,27.40
2019-03-21T12:16:56.143Z,19.83
2019-03-21T12:19:27.489Z,19.00
2019-03-21T12:22:02.277Z,19.43
2019-03-21T12:24:42.534Z,22.80
2019-03-21T12:27:37.621Z,17.40
2019-03-21T12:30:10.942Z,17.33
2019-03-21T12:32:42.119Z,19.37
2019-03-21T12:35:13.387Z,17.53
2019-03-21T12:37:45.588Z,20.80
2019-03-21T12:40:24.262Z,16.20
2019-03-21T12:43:05.065Z,19.50
2019-03-21T12:45:49.943Z,17.57
2019-03-21T12:48:23.022Z,14.73
2019-03-21T12:51:04.622Z,14.90
2019-03-21T12:54:05.776Z,16.97
2019-03-21T12:56:48.145Z,17.27
2019-03-21T12:59:19.316Z,14.67
2019-03-21T13:01:50.561Z,17.60
2019-03-21T13:04:36.544Z,13.67
2019-03-21T13:07:17.312Z,16.30
2019-03-21T13:09:48.617Z,14.87
2019-03-21T13:12:19.813Z,17.33
2019-03-21T13:14:51.801Z,17.00
2019-03-21T13:17:24.357Z,17.77
2019-03-21T13:19:55.689Z,17.67
2019-03-21T13:22:31.400Z,12.07
2019-03-21T13:25:08.127Z,15.33
2019-03-21T13:27:45.032Z,15.67
2019-03-21T13:30:16.631Z,16.90
2019-03-21T13:32:49.857Z,17.10
2019-03-21T13:35:32.117Z,14.63
2019-03-21T13:37:54.518Z,15.53
2019-03-21T13:40:26.080Z,16.27
2019-03-21T13:43:01.701Z,19.77
2019-03-21T13:45:33.615Z,14.80
2019-03-21T13:48:06.452Z,13.90
2019-03-21T13:51:08.819Z,11.83
2019-03-21T13:53:58.645Z,12.60
2019-03-21T13:56:37.930Z,15.00
2019-03-21T13:59:03.053Z,16.77
2019-03-21T14:01:35.353Z,14.63
2019-03-21T14:04:12.742Z,16.53
2019-03-21T14:06:57.379Z,18.67
2019-03-21T14:09:29.058Z,19.87
2019-03-21T14:12:00.537Z,14.97
2019-03-21T14:14:31.806Z,14.60
2019-03-21T14:17:05.077Z,15.50
2019-03-21T14:19:36.463Z,12.57
2019-03-21T14:22:23.866Z,21.10
2019-03-21T14:24:58.725Z,14.40
2019-03-21T14:27:30.295Z,16.23
2019-03-21T14:30:03.668Z,18.03
2019-03-21T14:32:36.024Z,17.00
2019-03-21T14:35:08.102Z,14.43
2019-03-21T14:37:39.415Z,15.67
2019-03-21T14:40:14.735Z,13.73
2019-03-21T14:42:46.498Z,15.77
2019-03-21T14:45:45.593Z,16.60
2019-03-21T14:51:32.291Z,15.37
2019-03-21T14:54:14.844Z,14.07
2019-03-21T14:56:51.920Z,14.17
2019-03-21T14:59:23.511Z,14.20
2019-03-21T15:02:29.501Z,15.23
2019-03-21T15:05:07.077Z,16.60
2019-03-21T15:07:44.046Z,15.13
2019-03-21T15:10:17.651Z,16.77
2019-03-21T15:12:49.352Z,16.17
2019-03-21T15:15:23.807Z,12.73
2019-03-21T15:17:58.530Z,15.97
2019-03-21T15:20:28.987Z,14.60
2019-03-21T15:23:01.146Z,13.30
2019-03-21T15:25:42.415Z,13.47
2019-03-21T15:28:13.472Z,16.00
2019-03-21T15:30:51.539Z,18.87
2019-03-21T15:33:26.637Z,14.67
2019-03-21T15:36:04.790Z,18.97
2019-03-21T15:38:36.042Z,14.27
2019-03-21T15:41:07.205Z,13.97
2019-03-21T15:43:46.329Z,15.53
2019-03-21T15:46:17.510Z,13.77
2019-03-21T15:49:12.749Z,14.33
2019-03-21T15:51:43.865Z,16.63
2019-03-21T15:55:03.095Z,12.80
2019-03-21T15:57:34.311Z,15.57
2019-03-21T16:00:07.688Z,15.90
2019-03-21T16:02:52.087Z,15.50
2019-03-21T16:05:23.400Z,17.53
2019-03-21T16:08:00.717Z,16.60
2019-03-21T16:10:33.880Z,16.20
2019-03-21T16:13:05.297Z,19.10
2019-03-21T16:15:42.087Z,20.60
2019-03-21T16:18:33.933Z,18.37
2019-03-21T16:21:06.175Z,21.63
2019-03-21T16:23:37.571Z,20.93
2019-03-21T16:26:08.853Z,17.27
2019-03-21T16:28:53.299Z,18.43
2019-03-21T16:31:25.685Z,21.63
2019-03-21T16:34:04.978Z,20.10
2019-03-21T16:36:45.456Z,19.83
2019-03-21T16:39:16.619Z,30.70
2019-03-21T16:41:47.806Z,29.07
2019-03-21T16:44:18.984Z,23.37
2019-03-21T16:47:13.917Z,28.00
2019-03-21T16:49:55.493Z,23.70
2019-03-21T16:52:54.457Z,23.50
2019-03-21T16:55:27.734Z,26.77
2019-03-21T16:58:02.029Z,26.97
2019-03-21T17:00:46.588Z,23.40
2019-03-21T17:03:22.874Z,27.57
2019-03-21T17:06:15.777Z,24.73
2019-03-21T17:08:47.015Z,24.93
2019-03-21T17:11:25.558Z,21.27
2019-03-21T17:13:56.711Z,24.37
2019-03-21T17:16:28.927Z,26.90
2019-03-21T17:19:07.771Z,24.63
2019-03-21T17:21:39.026Z,22.03
2019-03-21T17:24:28.450Z,25.97
2019-03-21T17:26:49.293Z,23.97
2019-03-21T17:29:20.476Z,28.17
2019-03-21T17:31:57.525Z,26.77
2019-03-21T17:34:29.723Z,25.97
2019-03-21T17:37:00.868Z,27.93
2019-03-21T17:39:35.275Z,28.73
2019-03-21T17:42:07.535Z,32.50
2019-03-21T17:44:41.318Z,30.03
2019-03-21T17:47:12.569Z,30.20
2019-03-21T17:49:43.840Z,25.80
2019-03-21T17:52:25.441Z,27.20
2019-03-21T17:54:59.942Z,27.83
2019-03-21T17:57:58.896Z,27.90
2019-03-21T18:00:31.764Z,30.03
2019-03-21T18:03:05.339Z,25.37
2019-03-21T18:05:57.472Z,30.53
2019-03-21T18:08:31.800Z,39.60
2019-03-21T18:11:05.036Z,31.87
2019-03-21T18:13:40.951Z,31.40
2019-03-21T18:16:12.169Z,26.77
2019-03-21T18:18:43.436Z,41.83
2019-03-21T18:21:15.569Z,31.97
2019-03-21T18:23:46.796Z,28.40
2019-03-21T18:26:25.319Z,27.60
2019-03-21T18:29:07.608Z,27.47
2019-03-21T18:31:38.908Z,30.53
2019-03-21T18:34:23.377Z,31.80
2019-03-21T18:36:58.305Z,30.20
2019-03-21T18:39:50.674Z,29.57
2019-03-21T18:42:23.830Z,29.43
2019-03-21T18:44:56.509Z,28.27
2019-03-21T18:47:35.718Z,27.20
2019-03-21T18:50:09.330Z,31.30
2019-03-21T18:53:00.508Z,28.77
2019-03-21T18:55:35.050Z,31.37
2019-03-21T18:58:06.283Z,32.70
2019-03-21T19:00:37.625Z,31.97
2019-03-21T19:03:09.107Z,29.07
2019-03-21T19:05:40.324Z,27.90
2019-03-21T19:08:27.344Z,33.60
2019-03-21T19:10:58.957Z,31.47
2019-03-21T19:13:33.160Z,31.10
2019-03-21T19:16:06.608Z,26.07
2019-03-21T19:18:47.030Z,31.47
2019-03-21T19:21:19.181Z,28.20
2019-03-21T19:23:50.388Z,26.20
2019-03-21T19:26:21.683Z,26.27
2019-03-21T19:29:06.452Z,41.40
2019-03-21T19:31:37.690Z,32.60
2019-03-21T19:34:08.852Z,29.63
2019-03-21T19:36:50.205Z,25.73
2019-03-21T19:39:21.583Z,31.10
2019-03-21T19:41:53.802Z,28.73
2019-03-21T19:44:25.019Z,29.10
2019-03-21T19:46:56.245Z,28.53
2019-03-21T19:49:34.987Z,30.77
2019-03-21T19:52:21.304Z,30.73
2019-03-21T19:54:52.532Z,29.37
2019-03-21T19:57:23.789Z,30.80
2019-03-21T20:00:07.842Z,31.93
2019-03-21T20:02:45.076Z,33.30
2019-03-21T20:05:16.417Z,37.20
2019-03-21T20:07:50.541Z,31.87
2019-03-21T20:10:32.887Z,34.37
2019-03-21T20:13:04.377Z,31.90
2019-03-21T20:15:36.585Z,32.90
2019-03-21T20:18:07.929Z,34.97
2019-03-21T20:20:47.131Z,31.30
2019-03-21T20:23:18.414Z,31.30
2019-03-21T20:25:49.649Z,31.43
2019-03-21T20:28:20.930Z,36.50
2019-03-21T20:30:52.144Z,33.93
2019-03-21T20:33:23.442Z,35.57
2019-03-21T20:35:54.755Z,35.50
2019-03-21T20:38:26.020Z,39.77
2019-03-21T20:40:57.357Z,37.90
2019-03-21T20:43:28.779Z,35.90
2019-03-21T20:46:01.014Z,35.77
2019-03-21T20:48:30.366Z,40.00
2019-03-21T20:51:01.611Z,39.03
2019-03-21T20:53:34.874Z,36.77
2019-03-21T20:56:11.670Z,39.80
2019-03-21T20:58:46.124Z,40.13
2019-03-21T21:01:17.246Z,41.33
2019-03-21T21:03:54.982Z,47.17
2019-03-21T21:06:29.590Z,39.13
2019-03-21T21:09:03.321Z,35.67
2019-03-21T21:11:56.433Z,44.93
2019-03-21T21:14:54.587Z,38.80
2019-03-21T21:17:26.855Z,38.87
2019-03-21T21:19:59.140Z,36.17
2019-03-21T21:22:34.287Z,39.97
2019-03-21T21:25:07.183Z,38.00
2019-03-21T21:27:49.563Z,37.57
2019-03-21T21:30:17.037Z,43.73
2019-03-21T21:32:49.428Z,36.03
2019-03-21T21:35:26.806Z,35.43
2019-03-21T21:38:03.535Z,41.27
2019-03-21T21:40:34.755Z,42.03
2019-03-21T21:43:06.162Z,41.87
2019-03-21T21:45:51.660Z,44.23
2019-03-21T21:48:22.714Z,41.90
2019-03-21T21:50:53.932Z,44.63
2019-03-21T21:53:26.137Z,43.90
2019-03-21T21:55:57.355Z,40.23
2019-03-21T21:58:29.220Z,40.03
2019-03-21T22:01:02.560Z,43.17
2019-03-21T22:03:33.762Z,42.80
2019-03-21T22:06:06.291Z,42.43
2019-03-21T22:08:52.749Z,44.83
2019-03-21T22:11:29.015Z,46.43
2019-03-21T22:14:14.157Z,42.83
2019-03-21T22:16:45.788Z,45.77
2019-03-21T22:19:17.386Z,39.93
2019-03-21T22:21:55.315Z,43.73
2019-03-21T22:24:26.385Z,44.10
2019-03-21T22:26:57.744Z,45.43
2019-03-21T22:29:30.057Z,51.07
2019-03-21T22:32:03.214Z,56.60
2019-03-21T22:34:34.630Z,53.03
2019-03-21T22:37:06.240Z,49.63
2019-03-21T22:39:38.062Z,49.13
2019-03-21T22:42:09.866Z,56.27
2019-03-21T22:44:44.444Z,48.43
2019-03-21T22:47:21.856Z,48.67
2019-03-21T22:49:53.712Z,51.50
2019-03-21T22:52:45.589Z,52.77
2019-03-21T22:55:21.307Z,49.73
2019-03-21T22:57:55.844Z,50.20
2019-03-21T23:00:43.378Z,47.10
2019-03-21T23:03:16.352Z,52.83
2019-03-21T23:05:48.559Z,51.23
2019-03-21T23:08:19.796Z,49.77
2019-03-21T23:10:57.937Z,57.67
2019-03-21T23:13:34.037Z,49.53
2019-03-21T23:16:05.359Z,53.20
2019-03-21T23:18:39.585Z,49.23
2019-03-21T23:21:28.892Z,52.67
2019-03-21T23:24:04.799Z,53.47
2019-03-21T23:26:37.064Z,51.73
2019-03-21T23:29:15.308Z,54.80
2019-03-21T23:32:00.138Z,52.67
2019-03-21T23:34:31.388Z,54.10
2019-03-21T23:37:12.682Z,58.87
2019-03-21T23:39:44.848Z,53.53
2019-03-21T23:42:42.932Z,57.73
2019-03-21T23:45:14.421Z,59.13
2019-03-21T23:47:45.694Z,60.33
2019-03-21T23:50:17.093Z,57.43
2019-03-21T23:52:48.597Z,58.97
2019-03-21T23:55:20.072Z,60.67
2019-03-21T23:57:52.307Z,59.17
